Time;durP1;ratioP1;P1;durP2;ratioP2;P2;SDS_P1;SDS_P2;PMS_P1;PMS_P2;Temp;Humidity;BMP_temperature;BMP_pressure;BME280_temperature;BME280_humidity;BME280_pressure;Samples;Min_cycle;Max_cycle;Signal;HPM_P1;HPM_P2
2023/02/19 00:01:11;;;;;;;20.33;10.00;;;;;;;;;;5084984;28;20377;-73
2023/02/19 00:03:37;;;;;;;19.30;9.50;;;;;;;;;;5084953;28;20118;-73
2023/02/19 00:06:04;;;;;;;21.02;10.13;;;;;;;;;;5087121;28;20426;-73
2023/02/19 00:08:34;;;;;;;19.95;8.77;;;;;;;;;;5087624;28;20047;-73
2023/02/19 00:11:04;;;;;;;19.75;9.68;;;;;;;;;;5061118;28;20572;-73
2023/02/19 00:13:30;;;;;;;20.55;10.05;;;;;;;;;;5080835;28;20565;-73
2023/02/19 00:15:56;;;;;;;22.70;10.70;;;;;;;;;;5087687;28;20028;-73
2023/02/19 00:18:23;;;;;;;40.55;18.50;;;;;;;;;;5079666;28;20024;-73
2023/02/19 00:20:49;;;;;;;43.90;19.02;;;;;;;;;;5089560;28;20034;-73
2023/02/19 00:23:15;;;;;;;41.85;19.75;;;;;;;;;;5082365;28;20035;-73
2023/02/19 00:25:41;;;;;;;28.00;14.68;;;;;;;;;;5086093;28;20446;-73
2023/02/19 00:28:07;;;;;;;27.77;13.65;;;;;;;;;;5086640;28;20053;-73
2023/02/19 00:30:33;;;;;;;23.33;12.10;;;;;;;;;;5080852;28;20024;-73
2023/02/19 00:32:59;;;;;;;29.10;13.30;;;;;;;;;;5083160;28;20077;-73
2023/02/19 00:35:25;;;;;;;26.65;13.82;;;;;;;;;;5087980;28;20533;-73
2023/02/19 00:37:51;;;;;;;24.10;12.50;;;;;;;;;;5082508;28;20021;-73
2023/02/19 00:40:17;;;;;;;26.17;12.70;;;;;;;;;;5083965;28;20050;-73
2023/02/19 00:42:43;;;;;;;33.28;14.95;;;;;;;;;;5085585;28;20110;-73
2023/02/19 00:45:09;;;;;;;30.55;14.60;;;;;;;;;;5075890;28;20084;-73
2023/02/19 00:47:35;;;;;;;23.90;11.68;;;;;;;;;;5084023;28;20061;-73
2023/02/19 00:50:01;;;;;;;27.02;12.05;;;;;;;;;;5087244;28;20024;-73
2023/02/19 00:52:27;;;;;;;24.23;11.32;;;;;;;;;;5081380;28;20024;-73
2023/02/19 00:54:53;;;;;;;24.65;12.43;;;;;;;;;;5082893;28;20752;-73
2023/02/19 00:57:19;;;;;;;22.23;11.48;;;;;;;;;;5086957;28;20040;-73
2023/02/19 00:59:45;;;;;;;24.88;12.43;;;;;;;;;;5080503;28;20043;-73
2023/02/19 01:02:11;;;;;;;25.42;12.75;;;;;;;;;;5080149;28;20883;-73
2023/02/19 01:04:37;;;;;;;22.10;11.88;;;;;;;;;;5084591;28;20100;-73
2023/02/19 01:07:03;;;;;;;25.55;11.85;;;;;;;;;;5088628;28;20678;-73
2023/02/19 01:09:29;;;;;;;22.00;10.77;;;;;;;;;;5085414;28;20032;-73
2023/02/19 01:11:55;;;;;;;21.05;10.35;;;;;;;;;;5088786;28;20440;-73
2023/02/19 01:14:21;;;;;;;20.95;9.77;;;;;;;;;;5084936;28;20039;-73
2023/02/19 01:16:47;;;;;;;21.17;10.45;;;;;;;;;;5087312;28;20035;-73
2023/02/19 01:19:13;;;;;;;19.40;9.90;;;;;;;;;;5078402;28;20035;-73
2023/02/19 01:21:39;;;;;;;18.48;9.13;;;;;;;;;;5078379;28;20040;-73
2023/02/19 01:24:05;;;;;;;20.50;9.95;;;;;;;;;;5083832;28;20134;-73
2023/02/19 01:26:31;;;;;;;18.75;9.38;;;;;;;;;;5082443;28;20320;-73
2023/02/19 01:28:58;;;;;;;20.88;10.68;;;;;;;;;;5086807;28;20073;-73
2023/02/19 01:31:25;;;;;;;21.85;10.55;;;;;;;;;;5087124;28;20491;-73
2023/02/19 01:33:52;;;;;;;17.13;7.93;;;;;;;;;;5087199;28;20032;-73
2023/02/19 01:36:19;;;;;;;16.90;8.07;;;;;;;;;;5084082;28;20066;-73
2023/02/19 01:38:45;;;;;;;19.85;9.10;;;;;;;;;;5080710;28;20037;-73
2023/02/19 01:41:15;;;;;;;13.45;6.90;;;;;;;;;;5085141;28;20063;-73
2023/02/19 01:44:17;;;;;;;18.13;10.80;;;;;;;;;;5084583;28;20056;-73
2023/02/19 01:46:45;;;;;;;13.30;6.78;;;;;;;;;;4981396;28;20034;-73
2023/02/19 01:49:22;;;;;;;14.25;7.05;;;;;;;;;;5062967;28;20066;-73
2023/02/19 01:51:52;;;;;;;10.98;4.93;;;;;;;;;;5080115;28;20038;-73
2023/02/19 01:54:19;;;;;;;13.60;6.65;;;;;;;;;;5077714;28;20523;-73
2023/02/19 01:56:47;;;;;;;15.00;6.50;;;;;;;;;;5078662;28;20032;-73
2023/02/19 01:59:13;;;;;;;16.85;7.82;;;;;;;;;;5087665;28;20040;-73
2023/02/19 02:01:40;;;;;;;14.27;7.20;;;;;;;;;;5082320;28;20036;-73
2023/02/19 02:04:09;;;;;;;11.45;6.80;;;;;;;;;;5077452;28;20036;-73
2023/02/19 02:06:55;;;;;;;13.07;6.35;;;;;;;;;;5088833;28;20036;-73
2023/02/19 02:12:09;;;;;;;14.38;6.22;;;;;;;;;;5081577;28;20131;-73
2023/02/19 02:14:36;;;;;;;15.55;7.60;;;;;;;;;;5090344;28;20038;-73
2023/02/19 02:17:21;;;;;;;13.82;7.13;;;;;;;;;;5089306;28;20031;-73
2023/02/19 02:19:47;;;;;;;15.25;7.35;;;;;;;;;;5087906;28;20064;-73
2023/02/19 02:22:19;;;;;;;12.13;6.43;;;;;;;;;;5089004;28;20126;-73
2023/02/19 02:25:08;;;;;;;14.63;6.80;;;;;;;;;;5087616;28;20040;-73
2023/02/19 02:27:34;;;;;;;9.90;4.95;;;;;;;;;;5076631;28;20118;-73
2023/02/19 02:30:18;;;;;;;11.98;5.93;;;;;;;;;;5089363;28;20024;-73
2023/02/19 02:33:02;;;;;;;11.43;6.03;;;;;;;;;;5089349;28;20056;-73
2023/02/19 02:35:40;;;;;;;11.43;6.85;;;;;;;;;;5082331;28;20036;-73
2023/02/19 02:38:07;;;;;;;14.15;6.35;;;;;;;;;;5087671;28;20046;-73
2023/02/19 02:40:34;;;;;;;10.13;5.20;;;;;;;;;;5088149;28;20548;-73
2023/02/19 02:43:00;;;;;;;8.05;2.92;;;;;;;;;;5087548;28;20477;-73
2023/02/19 02:45:34;;;;;;;6.85;2.53;;;;;;;;;;5090686;28;20481;-73
2023/02/19 02:48:01;;;;;;;8.45;2.63;;;;;;;;;;5089120;28;20034;-73
2023/02/19 02:50:30;;;;;;;8.52;2.85;;;;;;;;;;5079079;28;20036;-73
2023/02/19 02:55:44;;;;;;;8.30;3.10;;;;;;;;;;5075021;28;20085;-73
2023/02/19 02:58:11;;;;;;;9.38;3.97;;;;;;;;;;5084054;28;20062;-73
2023/02/19 03:03:24;;;;;;;13.52;4.78;;;;;;;;;;5089271;28;20042;-73
2023/02/19 03:05:52;;;;;;;12.43;4.70;;;;;;;;;;5083130;28;20036;-73
2023/02/19 03:08:28;;;;;;;9.43;3.83;;;;;;;;;;5086977;28;20465;-73
2023/02/19 03:10:57;;;;;;;11.73;4.88;;;;;;;;;;5087304;28;20129;-73
2023/02/19 03:19:19;;;;;;;7.63;3.25;;;;;;;;;;5078344;28;20050;-73
2023/02/19 03:21:49;;;;;;;7.78;3.05;;;;;;;;;;5086238;28;20128;-73
2023/02/19 03:27:04;;;;;;;9.18;3.60;;;;;;;;;;5074692;28;20455;-73
2023/02/19 03:29:32;;;;;;;7.82;3.45;;;;;;;;;;5089717;28;20389;-73
2023/02/19 03:32:00;;;;;;;9.65;3.70;;;;;;;;;;5088389;28;20755;-73
2023/02/19 03:34:33;;;;;;;5.30;2.55;;;;;;;;;;5087897;28;20043;-73
2023/02/19 03:37:03;;;;;;;9.43;2.83;;;;;;;;;;5088376;28;20067;-73
2023/02/19 03:39:29;;;;;;;8.95;2.88;;;;;;;;;;5088463;28;20055;-73
2023/02/19 03:41:55;;;;;;;7.55;3.03;;;;;;;;;;5090347;28;20031;-73
2023/02/19 03:44:22;;;;;;;8.10;2.65;;;;;;;;;;5084899;28;20374;-73
2023/02/19 03:46:54;;;;;;;7.63;3.05;;;;;;;;;;5085209;28;20020;-73
2023/02/19 03:49:26;;;;;;;10.00;3.55;;;;;;;;;;5083826;28;20036;-73
2023/02/19 03:52:01;;;;;;;7.90;3.50;;;;;;;;;;5084720;28;20024;-73
2023/02/19 03:54:30;;;;;;;8.50;3.08;;;;;;;;;;5088029;28;20032;-73
2023/02/19 03:57:01;;;;;;;7.22;3.53;;;;;;;;;;5078499;28;20036;-73
2023/02/19 03:59:27;;;;;;;7.10;3.22;;;;;;;;;;5087197;28;20040;-73
2023/02/19 04:01:54;;;;;;;10.10;2.88;;;;;;;;;;5082281;28;20107;-73
2023/02/19 04:04:24;;;;;;;8.98;3.17;;;;;;;;;;5084663;28;20041;-73
2023/02/19 04:06:53;;;;;;;12.02;2.67;;;;;;;;;;5086470;28;20103;-73
2023/02/19 04:09:20;;;;;;;8.88;3.10;;;;;;;;;;5087429;28;20137;-73
2023/02/19 04:11:47;;;;;;;7.88;2.88;;;;;;;;;;5088473;28;20534;-73
2023/02/19 04:14:34;;;;;;;8.15;3.08;;;;;;;;;;5073856;28;20036;-73
2023/02/19 04:17:06;;;;;;;11.77;2.33;;;;;;;;;;5089010;28;20039;-73
2023/02/19 04:19:34;;;;;;;10.73;3.45;;;;;;;;;;5086073;28;20527;-73
2023/02/19 04:22:01;;;;;;;7.35;3.40;;;;;;;;;;5068520;28;20420;-73
2023/02/19 04:24:38;;;;;;;9.65;3.60;;;;;;;;;;5082431;28;20081;-73
2023/02/19 04:27:05;;;;;;;7.43;3.00;;;;;;;;;;5071918;28;20070;-73
2023/02/19 04:29:31;;;;;;;5.03;2.42;;;;;;;;;;5083302;28;20039;-73
2023/02/19 04:31:57;;;;;;;5.85;2.20;;;;;;;;;;5089468;28;20432;-73
2023/02/19 04:34:23;;;;;;;7.70;2.97;;;;;;;;;;5087652;28;20051;-73
2023/02/19 04:36:49;;;;;;;6.72;3.10;;;;;;;;;;5088712;28;20032;-73
2023/02/19 04:39:15;;;;;;;6.10;2.75;;;;;;;;;;5078988;28;20032;-73
2023/02/19 04:41:41;;;;;;;7.30;2.97;;;;;;;;;;5088070;28;20499;-73
2023/02/19 04:44:07;;;;;;;8.90;3.38;;;;;;;;;;5087167;28;20092;-73
2023/02/19 04:46:33;;;;;;;5.20;2.35;;;;;;;;;;5085314;28;20035;-73
2023/02/19 04:48:59;;;;;;;6.70;3.30;;;;;;;;;;5088833;28;20032;-73
2023/02/19 04:51:25;;;;;;;7.82;2.58;;;;;;;;;;5086767;28;20487;-73
2023/02/19 04:53:51;;;;;;;7.15;2.90;;;;;;;;;;5068992;28;20043;-73
2023/02/19 04:56:17;;;;;;;8.75;4.18;;;;;;;;;;5076627;28;20032;-73
2023/02/19 04:58:44;;;;;;;8.32;3.72;;;;;;;;;;5069608;28;20370;-73
2023/02/19 05:01:10;;;;;;;7.55;3.67;;;;;;;;;;5085897;28;20060;-73
2023/02/19 05:03:37;;;;;;;9.10;3.45;;;;;;;;;;5088481;28;20039;-73
2023/02/19 05:06:07;;;;;;;9.52;4.38;;;;;;;;;;5079764;28;20066;-73
2023/02/19 05:08:33;;;;;;;9.70;4.70;;;;;;;;;;5087602;28;20149;-73
2023/02/19 05:11:00;;;;;;;7.53;3.80;;;;;;;;;;5083786;28;20060;-73
2023/02/19 05:13:26;;;;;;;9.43;4.80;;;;;;;;;;5087359;28;20422;-73
2023/02/19 05:15:59;;;;;;;11.38;4.43;;;;;;;;;;5086575;28;20032;-73
2023/02/19 05:18:25;;;;;;;9.43;4.88;;;;;;;;;;5086012;28;20028;-73
2023/02/19 05:20:52;;;;;;;10.95;4.63;;;;;;;;;;5086023;28;20094;-73
2023/02/19 05:23:18;;;;;;;10.77;4.60;;;;;;;;;;5082028;28;20032;-73
2023/02/19 05:25:44;;;;;;;8.95;5.00;;;;;;;;;;5082021;28;20032;-73
2023/02/19 05:28:16;;;;;;;8.35;4.07;;;;;;;;;;5085180;28;20032;-73
2023/02/19 05:30:50;;;;;;;10.75;5.13;;;;;;;;;;5086468;28;20036;-73
2023/02/19 05:33:17;;;;;;;9.10;3.83;;;;;;;;;;5078871;28;20481;-73
2023/02/19 05:35:44;;;;;;;9.38;4.18;;;;;;;;;;5075343;28;20040;-73
2023/02/19 05:38:10;;;;;;;8.00;4.22;;;;;;;;;;5085432;28;20043;-73
2023/02/19 05:40:36;;;;;;;9.52;4.40;;;;;;;;;;5087162;28;20048;-73
2023/02/19 05:43:02;;;;;;;8.90;4.00;;;;;;;;;;5081482;28;20052;-73
2023/02/19 05:45:28;;;;;;;8.90;3.30;;;;;;;;;;5068947;28;20574;-73
2023/02/19 05:47:54;;;;;;;7.88;4.40;;;;;;;;;;5084133;28;20035;-73
2023/02/19 05:50:20;;;;;;;8.25;3.30;;;;;;;;;;5071982;28;20044;-73
2023/02/19 05:52:46;;;;;;;7.50;3.10;;;;;;;;;;5080873;28;20112;-73
2023/02/19 05:55:12;;;;;;;7.88;4.22;;;;;;;;;;5083171;28;20540;-73
2023/02/19 05:57:42;;;;;;;11.25;4.10;;;;;;;;;;5082426;28;20398;-74
2023/02/19 06:00:09;;;;;;;8.10;3.58;;;;;;;;;;5081971;28;20064;-73
2023/02/19 06:02:36;;;;;;;10.00;3.95;;;;;;;;;;5085205;28;20138;-73
2023/02/19 06:05:02;;;;;;;7.22;3.28;;;;;;;;;;5069016;28;20036;-73
2023/02/19 06:07:28;;;;;;;9.85;3.50;;;;;;;;;;5085872;28;20354;-73
2023/02/19 06:09:54;;;;;;;9.35;3.80;;;;;;;;;;5088095;28;20043;-73
2023/02/19 06:12:20;;;;;;;11.57;3.72;;;;;;;;;;5086189;28;20047;-73
2023/02/19 06:14:46;;;;;;;8.68;3.85;;;;;;;;;;5077870;28;20069;-73
2023/02/19 06:17:12;;;;;;;7.88;2.88;;;;;;;;;;5086199;28;20078;-73
2023/02/19 06:19:38;;;;;;;7.10;3.28;;;;;;;;;;5083523;28;20060;-73
2023/02/19 06:22:04;;;;;;;9.98;4.47;;;;;;;;;;5083617;28;20032;-73
2023/02/19 06:24:30;;;;;;;10.02;3.00;;;;;;;;;;5084759;28;20582;-74
2023/02/19 06:26:56;;;;;;;6.85;2.80;;;;;;;;;;5067257;28;20028;-74
2023/02/19 06:29:22;;;;;;;7.05;3.40;;;;;;;;;;5086960;28;20114;-73
2023/02/19 06:31:48;;;;;;;8.27;4.25;;;;;;;;;;5087421;28;20783;-73
2023/02/19 06:34:14;;;;;;;7.57;3.40;;;;;;;;;;5085661;28;20032;-74
2023/02/19 06:36:40;;;;;;;9.38;3.20;;;;;;;;;;5089740;28;20036;-73
2023/02/19 06:39:06;;;;;;;8.55;4.22;;;;;;;;;;5087714;28;20057;-74
2023/02/19 06:41:32;;;;;;;9.80;2.83;;;;;;;;;;5086699;28;20028;-73
2023/02/19 06:43:58;;;;;;;7.47;3.83;;;;;;;;;;5085613;28;20052;-73
2023/02/19 06:46:24;;;;;;;9.20;4.20;;;;;;;;;;5086476;28;20039;-74
2023/02/19 06:48:50;;;;;;;12.38;4.38;;;;;;;;;;5086437;28;20073;-73
2023/02/19 06:51:21;;;;;;;11.60;5.93;;;;;;;;;;5085627;28;20032;-73
2023/02/19 06:53:47;;;;;;;16.35;7.70;;;;;;;;;;5090284;28;20772;-73
2023/02/19 06:56:24;;;;;;;11.15;5.22;;;;;;;;;;5088830;28;20028;-74
2023/02/19 06:58:51;;;;;;;13.40;4.47;;;;;;;;;;5090045;28;20036;-73
2023/02/19 07:01:17;;;;;;;10.40;2.45;;;;;;;;;;5090292;28;20070;-73
2023/02/19 07:03:43;;;;;;;9.43;3.60;;;;;;;;;;5090432;28;20036;-74
2023/02/19 07:06:09;;;;;;;12.60;3.63;;;;;;;;;;5091604;28;20036;-73
2023/02/19 07:08:35;;;;;;;8.48;3.92;;;;;;;;;;5071461;28;20110;-73
2023/02/19 07:11:01;;;;;;;7.90;3.45;;;;;;;;;;5092842;28;20560;-73
2023/02/19 07:13:27;;;;;;;11.20;4.30;;;;;;;;;;5093289;28;20048;-73
2023/02/19 07:16:01;;;;;;;9.43;4.05;;;;;;;;;;5085614;28;20046;-73
2023/02/19 07:18:27;;;;;;;11.85;4.80;;;;;;;;;;5088365;28;20031;-74
2023/02/19 07:20:53;;;;;;;12.65;5.20;;;;;;;;;;5084569;28;20059;-74
2023/02/19 07:23:19;;;;;;;10.93;4.68;;;;;;;;;;5086287;28;20032;-73
2023/02/19 07:25:45;;;;;;;11.40;4.90;;;;;;;;;;5086079;28;20031;-74
2023/02/19 07:28:11;;;;;;;11.18;5.60;;;;;;;;;;5092223;28;20535;-74
2023/02/19 07:30:37;;;;;;;12.02;5.90;;;;;;;;;;5084147;28;20161;-74
2023/02/19 07:33:03;;;;;;;13.15;6.15;;;;;;;;;;5085447;28;20475;-74
2023/02/19 07:35:29;;;;;;;10.85;5.43;;;;;;;;;;5089289;28;20071;-74
2023/02/19 07:37:55;;;;;;;11.52;5.80;;;;;;;;;;5089002;28;20503;-73
2023/02/19 07:40:21;;;;;;;11.57;6.05;;;;;;;;;;5088186;28;20063;-74
2023/02/19 07:42:47;;;;;;;10.40;6.10;;;;;;;;;;5085256;28;20032;-74
2023/02/19 07:45:13;;;;;;;14.35;7.30;;;;;;;;;;5090985;28;20074;-74
2023/02/19 07:47:39;;;;;;;12.77;6.45;;;;;;;;;;5084950;28;20032;-73
2023/02/19 07:50:05;;;;;;;11.68;5.85;;;;;;;;;;5092869;28;20040;-73
2023/02/19 07:52:33;;;;;;;12.02;6.70;;;;;;;;;;5086773;28;20664;-73
2023/02/19 07:54:59;;;;;;;15.88;8.32;;;;;;;;;;5089084;28;20047;-73
2023/02/19 07:57:27;;;;;;;12.88;7.50;;;;;;;;;;5091425;28;20047;-74
2023/02/19 07:59:53;;;;;;;13.40;7.82;;;;;;;;;;5088933;28;20040;-74
2023/02/19 08:05:05;;;;;;;12.85;6.65;;;;;;;;;;5087908;28;20074;-74
2023/02/19 08:07:32;;;;;;;17.85;8.68;;;;;;;;;;5091256;28;20514;-74
2023/02/19 08:15:28;;;;;;;12.68;7.30;;;;;;;;;;5089138;28;20086;-74
2023/02/19 08:17:54;;;;;;;15.40;7.70;;;;;;;;;;5086211;28;20060;-74
2023/02/19 08:20:20;;;;;;;16.58;7.38;;;;;;;;;;5085440;28;20476;-74
2023/02/19 08:22:46;;;;;;;12.40;6.57;;;;;;;;;;5082703;28;20115;-74
2023/02/19 08:25:12;;;;;;;15.25;8.20;;;;;;;;;;5085540;28;20146;-74
2023/02/19 08:27:38;;;;;;;17.05;8.20;;;;;;;;;;5084115;28;20024;-74
2023/02/19 08:30:04;;;;;;;13.30;7.25;;;;;;;;;;5091454;28;20474;-74
2023/02/19 08:32:30;;;;;;;16.15;7.50;;;;;;;;;;5087319;28;20024;-74
2023/02/19 08:34:56;;;;;;;13.10;6.22;;;;;;;;;;5090784;28;20036;-74
2023/02/19 08:37:22;;;;;;;16.35;6.97;;;;;;;;;;5086777;28;20507;-73
2023/02/19 08:39:48;;;;;;;16.60;7.53;;;;;;;;;;5091955;28;20077;-75
2023/02/19 08:42:14;;;;;;;14.65;6.18;;;;;;;;;;5084205;28;20411;-75
2023/02/19 08:44:40;;;;;;;15.60;6.18;;;;;;;;;;5085351;28;20044;-75
2023/02/19 08:47:06;;;;;;;14.07;5.88;;;;;;;;;;5088613;28;20404;-76
2023/02/19 08:49:32;;;;;;;21.85;7.35;;;;;;;;;;5088618;28;20476;-75
2023/02/19 08:51:59;;;;;;;18.13;6.80;;;;;;;;;;5086729;28;20055;-75
2023/02/19 08:54:25;;;;;;;15.65;7.15;;;;;;;;;;5085347;28;20038;-75
2023/02/19 08:56:51;;;;;;;10.82;5.40;;;;;;;;;;5087912;28;20103;-75
2023/02/19 08:59:19;;;;;;;10.93;4.60;;;;;;;;;;5086458;28;20115;-75
2023/02/19 09:01:45;;;;;;;13.57;4.38;;;;;;;;;;5086449;28;20028;-75
2023/02/19 09:04:13;;;;;;;8.98;4.50;;;;;;;;;;5092069;28;20659;-76
2023/02/19 09:06:40;;;;;;;12.35;5.00;;;;;;;;;;5078636;28;20036;-75
2023/02/19 09:09:06;;;;;;;11.82;6.43;;;;;;;;;;5070328;28;20025;-75
2023/02/19 09:11:32;;;;;;;9.80;5.30;;;;;;;;;;5083961;28;20032;-75
2023/02/19 09:13:58;;;;;;;7.60;2.90;;;;;;;;;;5085384;28;20051;-76
2023/02/19 09:16:24;;;;;;;5.35;2.28;;;;;;;;;;5084682;28;20024;-76
2023/02/19 09:18:50;;;;;;;6.40;2.67;;;;;;;;;;5084763;28;20036;-76
2023/02/19 09:21:16;;;;;;;4.90;1.98;;;;;;;;;;5087580;28;20023;-75
2023/02/19 09:23:42;;;;;;;4.80;1.63;;;;;;;;;;5086067;28;20579;-76
2023/02/19 09:26:08;;;;;;;5.10;2.10;;;;;;;;;;5086008;28;20028;-75
2023/02/19 09:28:35;;;;;;;6.40;2.40;;;;;;;;;;5086515;28;20031;-75
2023/02/19 09:31:09;;;;;;;7.80;2.13;;;;;;;;;;5086341;28;20043;-74
2023/02/19 09:33:35;;;;;;;6.38;1.80;;;;;;;;;;5085512;28;20564;-75
2023/02/19 09:36:02;;;;;;;4.72;1.20;;;;;;;;;;5088866;28;20039;-74
2023/02/19 09:38:29;;;;;;;4.15;1.40;;;;;;;;;;5088159;28;20032;-75
2023/02/19 09:40:56;;;;;;;6.20;1.30;;;;;;;;;;5086902;28;20036;-74
2023/02/19 09:43:25;;;;;;;6.00;1.90;;;;;;;;;;5085347;28;20093;-74
2023/02/19 09:45:55;;;;;;;10.05;4.47;;;;;;;;;;5086737;28;20043;-74
2023/02/19 09:48:21;;;;;;;7.15;2.80;;;;;;;;;;5087629;28;20107;-74
2023/02/19 09:50:48;;;;;;;7.95;2.90;;;;;;;;;;5087071;28;20036;-74
2023/02/19 09:53:22;;;;;;;9.68;3.90;;;;;;;;;;5088266;28;20073;-75
2023/02/19 09:55:48;;;;;;;14.52;5.25;;;;;;;;;;5085332;28;20047;-75
2023/02/19 09:58:24;;;;;;;8.88;2.85;;;;;;;;;;5083502;28;20055;-75
2023/02/19 10:00:51;;;;;;;10.30;1.73;;;;;;;;;;5086961;28;20036;-74
2023/02/19 10:03:22;;;;;;;6.05;1.80;;;;;;;;;;5086624;28;20027;-74
2023/02/19 10:05:48;;;;;;;3.45;1.23;;;;;;;;;;5088345;28;20047;-74
2023/02/19 10:08:17;;;;;;;4.90;1.50;;;;;;;;;;5085167;28;20028;-75
2023/02/19 10:10:43;;;;;;;9.73;3.40;;;;;;;;;;5082011;28;20032;-74
2023/02/19 10:13:12;;;;;;;11.80;4.20;;;;;;;;;;5087184;28;20837;-74
2023/02/19 10:15:42;;;;;;;6.18;1.80;;;;;;;;;;5079397;28;20089;-74
2023/02/19 10:18:08;;;;;;;5.80;1.55;;;;;;;;;;5079716;28;20040;-74
2023/02/19 10:20:34;;;;;;;3.78;1.92;;;;;;;;;;5083517;28;20471;-74
2023/02/19 10:23:01;;;;;;;3.67;1.50;;;;;;;;;;5084823;28;20701;-74
2023/02/19 10:25:28;;;;;;;4.95;1.75;;;;;;;;;;5085364;28;20067;-74
2023/02/19 10:27:54;;;;;;;4.22;1.92;;;;;;;;;;5084916;28;20025;-73
2023/02/19 10:30:24;;;;;;;5.40;2.30;;;;;;;;;;5087247;28;20036;-74
2023/02/19 10:32:58;;;;;;;5.22;2.00;;;;;;;;;;5088906;28;20032;-74
2023/02/19 10:35:24;;;;;;;5.85;1.90;;;;;;;;;;5086136;28;20550;-74
2023/02/19 10:37:51;;;;;;;5.68;1.95;;;;;;;;;;5071253;28;20028;-74
2023/02/19 10:40:19;;;;;;;5.93;1.92;;;;;;;;;;5083497;28;20063;-74
2023/02/19 10:42:46;;;;;;;5.10;1.90;;;;;;;;;;5086719;28;20032;-74
2023/02/19 10:45:21;;;;;;;8.98;1.67;;;;;;;;;;5090731;28;20071;-75
2023/02/19 10:47:47;;;;;;;4.05;1.60;;;;;;;;;;5086889;28;20043;-73
2023/02/19 10:50:23;;;;;;;5.00;1.65;;;;;;;;;;5089455;28;20139;-74
2023/02/19 10:52:53;;;;;;;5.53;1.95;;;;;;;;;;5085897;28;20642;-74
2023/02/19 10:55:19;;;;;;;5.97;1.75;;;;;;;;;;5070459;28;20036;-74
2023/02/19 10:57:45;;;;;;;5.95;1.90;;;;;;;;;;5086726;28;20059;-74
2023/02/19 11:00:14;;;;;;;6.25;2.10;;;;;;;;;;5088702;28;20085;-74
2023/02/19 11:02:41;;;;;;;4.22;1.77;;;;;;;;;;5085360;28;20401;-74
2023/02/19 11:05:16;;;;;;;5.25;2.10;;;;;;;;;;5087154;28;20028;-75
2023/02/19 11:07:48;;;;;;;5.30;2.17;;;;;;;;;;5088029;28;20056;-74
2023/02/19 11:10:14;;;;;;;;;;;;;;;;;;5085839;28;20027;-74
2023/02/19 11:12:40;;;;;;;8.13;1.92;;;;;;;;;;5064841;28;19916;-74
2023/02/19 11:15:19;;;;;;;4.55;1.88;;;;;;;;;;5088332;28;20035;-74
2023/02/19 11:17:45;;;;;;;3.33;1.60;;;;;;;;;;5083436;28;20507;-74
2023/02/19 11:20:16;;;;;;;5.00;1.98;;;;;;;;;;5079373;28;20043;-74
2023/02/19 11:22:48;;;;;;;6.78;2.10;;;;;;;;;;5085287;28;20477;-74
2023/02/19 11:25:14;;;;;;;5.85;2.63;;;;;;;;;;5088635;28;20028;-75
2023/02/19 11:28:09;;;;;;;5.60;2.00;;;;;;;;;;5082899;28;20036;-74
2023/02/19 11:30:35;;;;;;;7.05;2.60;;;;;;;;;;5075504;28;20040;-74
2023/02/19 11:33:18;;;;;;;9.05;3.90;;;;;;;;;;5087724;28;20020;-74
2023/02/19 11:35:45;;;;;;;5.35;1.98;;;;;;;;;;5084172;28;20035;-74
2023/02/19 11:38:12;;;;;;;7.75;2.70;;;;;;;;;;5085364;28;20028;-75
2023/02/19 11:40:44;;;;;;;6.03;2.35;;;;;;;;;;5085907;28;20035;-75
2023/02/19 11:43:16;;;;;;;8.75;4.00;;;;;;;;;;5086476;28;20027;-74
2023/02/19 11:45:58;;;;;;;5.72;2.30;;;;;;;;;;5079241;28;20125;-74
2023/02/19 11:48:32;;;;;;;7.18;3.28;;;;;;;;;;5082689;28;20100;-75
2023/02/19 11:51:33;;;;;;;6.07;2.47;;;;;;;;;;5081104;28;20058;-74
2023/02/19 11:54:17;;;;;;;4.78;1.95;;;;;;;;;;5046930;28;20075;-75
2023/02/19 11:56:44;;;;;;;7.82;2.33;;;;;;;;;;5080943;28;20094;-74
2023/02/19 11:59:28;;;;;;;6.22;2.28;;;;;;;;;;5086123;28;20066;-75
2023/02/19 12:02:10;;;;;;;7.18;2.47;;;;;;;;;;5082343;28;20081;-74
2023/02/19 12:04:36;;;;;;;;;;;;;;;;;;5083125;28;20901;-75
2023/02/19 12:07:22;;;;;;;4.60;1.95;;;;;;;;;;5083889;28;19923;-75
2023/02/19 12:10:04;;;;;;;5.10;2.03;;;;;;;;;;5086684;28;20032;-75
2023/02/19 12:12:49;;;;;;;5.10;2.00;;;;;;;;;;5065256;28;20040;-75
2023/02/19 12:15:15;;;;;;;4.93;1.90;;;;;;;;;;5087614;28;20362;-76
2023/02/19 12:17:41;;;;;;;6.85;2.00;;;;;;;;;;5087807;28;20065;-74
2023/02/19 12:20:13;;;;;;;4.22;1.45;;;;;;;;;;5084954;28;20521;-74
2023/02/19 12:22:49;;;;;;;3.40;1.70;;;;;;;;;;5087598;28;20043;-74
2023/02/19 12:25:24;;;;;;;3.20;1.50;;;;;;;;;;5084975;28;20626;-74
2023/02/19 12:27:56;;;;;;;3.97;1.55;;;;;;;;;;5086442;28;20481;-75
2023/02/19 12:30:43;;;;;;;4.70;1.77;;;;;;;;;;5087339;28;20046;-74
2023/02/19 12:33:24;;;;;;;2.78;1.17;;;;;;;;;;5085363;28;21383;-75
2023/02/19 12:36:00;;;;;;;6.82;1.42;;;;;;;;;;5086391;28;20072;-76
2023/02/19 12:38:50;;;;;;;4.75;1.52;;;;;;;;;;5086899;28;20191;-74
2023/02/19 12:41:19;;;;;;;5.82;1.67;;;;;;;;;;5084534;28;20037;-74
2023/02/19 12:43:58;;;;;;;5.32;1.85;;;;;;;;;;5061819;28;20109;-74
2023/02/19 12:46:30;;;;;;;5.07;2.10;;;;;;;;;;5083161;28;20068;-74
2023/02/19 12:49:03;;;;;;;4.88;2.15;;;;;;;;;;5081659;28;20021;-74
2023/02/19 12:51:36;;;;;;;4.22;1.73;;;;;;;;;;5087552;28;20562;-73
2023/02/19 12:54:06;;;;;;;5.93;2.17;;;;;;;;;;5084392;28;20090;-74
2023/02/19 12:56:35;;;;;;;4.13;1.60;;;;;;;;;;5076254;28;20062;-73
2023/02/19 12:59:24;;;;;;;4.70;2.20;;;;;;;;;;5085902;28;20028;-74
2023/02/19 13:02:02;;;;;;;4.45;1.83;;;;;;;;;;5056312;28;20052;-74
2023/02/19 13:04:40;;;;;;;4.10;1.23;;;;;;;;;;5082206;28;20032;-73
2023/02/19 13:07:10;;;;;;;3.33;1.48;;;;;;;;;;5079116;28;20032;-74
2023/02/19 13:09:38;;;;;;;3.72;1.70;;;;;;;;;;5081500;28;20039;-74
2023/02/19 13:12:04;;;;;;;4.03;1.45;;;;;;;;;;5085707;28;20150;-74
2023/02/19 13:14:33;;;;;;;4.68;1.65;;;;;;;;;;5083132;28;20173;-73
2023/02/19 13:17:02;;;;;;;3.05;1.55;;;;;;;;;;5088235;28;20055;-74
2023/02/19 13:19:30;;;;;;;5.68;2.00;;;;;;;;;;5078849;28;20032;-74
2023/02/19 13:24:49;;;;;;;5.65;1.77;;;;;;;;;;5085861;28;20047;-74
2023/02/19 13:27:32;;;;;;;5.03;1.80;;;;;;;;;;5082294;28;20115;-75
2023/02/19 13:30:01;;;;;;;3.67;1.70;;;;;;;;;;5087493;28;20105;-74
2023/02/19 13:32:39;;;;;;;3.58;1.23;;;;;;;;;;5085766;28;21056;-74
2023/02/19 13:35:18;;;;;;;2.80;1.10;;;;;;;;;;5086295;28;20032;-74
2023/02/19 13:37:44;;;;;;;3.78;1.70;;;;;;;;;;5084154;28;20044;-73
2023/02/19 13:40:23;;;;;;;4.72;1.55;;;;;;;;;;5084473;28;20031;-73
2023/02/19 13:42:54;;;;;;;6.38;3.00;;;;;;;;;;5085337;28;20062;-74
2023/02/19 13:45:22;;;;;;;5.53;1.90;;;;;;;;;;5087492;28;20058;-74
2023/02/19 13:47:58;;;;;;;4.53;1.27;;;;;;;;;;5084368;28;20036;-74
2023/02/19 13:50:32;;;;;;;3.05;1.40;;;;;;;;;;5087977;28;20025;-74
2023/02/19 13:52:59;;;;;;;3.72;1.42;;;;;;;;;;5088686;28;20489;-74
2023/02/19 13:55:48;;;;;;;5.63;1.90;;;;;;;;;;5088141;28;20059;-75
2023/02/19 13:58:32;;;;;;;6.68;2.85;;;;;;;;;;5087360;28;20385;-74
2023/02/19 14:01:01;;;;;;;2.85;1.00;;;;;;;;;;5089571;28;20065;-74
2023/02/19 14:03:29;;;;;;;5.57;1.33;;;;;;;;;;5092093;28;20078;-74
2023/02/19 14:06:04;;;;;;;3.20;1.23;;;;;;;;;;5081444;28;20063;-74
2023/02/19 14:08:46;;;;;;;6.97;2.42;;;;;;;;;;5091202;28;20031;-74
2023/02/19 14:11:13;;;;;;;7.32;1.67;;;;;;;;;;5091343;28;20040;-73
2023/02/19 14:13:51;;;;;;;2.45;0.90;;;;;;;;;;5085154;28;20028;-74
2023/02/19 14:16:36;;;;;;;3.15;0.75;;;;;;;;;;5087941;28;20032;-74
2023/02/19 14:19:03;;;;;;;4.38;1.15;;;;;;;;;;5091632;28;20099;-74
2023/02/19 14:21:37;;;;;;;2.47;1.00;;;;;;;;;;5092254;28;20036;-74
2023/02/19 14:24:03;;;;;;;6.78;3.28;;;;;;;;;;5087705;28;20024;-74
2023/02/19 14:26:31;;;;;;;4.38;1.55;;;;;;;;;;5084843;28;20645;-74
2023/02/19 14:28:58;;;;;;;2.40;0.60;;;;;;;;;;5090220;28;20024;-74
2023/02/19 14:31:26;;;;;;;1.33;0.50;;;;;;;;;;5091968;28;20024;-74
2023/02/19 14:33:54;;;;;;;3.45;1.00;;;;;;;;;;5091637;28;20028;-74
2023/02/19 14:36:31;;;;;;;2.17;0.90;;;;;;;;;;5090845;28;20481;-74
2023/02/19 14:38:59;;;;;;;3.45;0.85;;;;;;;;;;5089704;28;20488;-75
2023/02/19 14:41:27;;;;;;;2.60;0.90;;;;;;;;;;5086217;28;20047;-75
2023/02/19 14:43:55;;;;;;;3.10;1.00;;;;;;;;;;5088464;28;20042;-75
2023/02/19 14:46:43;;;;;;;4.60;1.10;;;;;;;;;;5086346;28;20043;-75
2023/02/19 14:49:15;;;;;;;1.95;0.77;;;;;;;;;;5089018;28;20024;-75
2023/02/19 14:51:43;;;;;;;5.95;1.02;;;;;;;;;;5088146;28;20795;-75
2023/02/19 14:54:20;;;;;;;4.03;1.50;;;;;;;;;;5087590;28;20117;-75
2023/02/19 14:56:50;;;;;;;3.63;0.82;;;;;;;;;;5089228;28;20038;-75
2023/02/19 14:59:19;;;;;;;14.57;7.85;;;;;;;;;;5087873;28;20866;-75
2023/02/19 15:01:45;;;;;;;6.32;3.38;;;;;;;;;;5085242;28;20040;-75
2023/02/19 15:04:22;;;;;;;2.65;0.80;;;;;;;;;;5089694;28;20418;-75
2023/02/19 15:06:48;;;;;;;6.45;1.35;;;;;;;;;;5085620;28;20144;-75
2023/02/19 15:09:15;;;;;;;4.05;0.90;;;;;;;;;;5088909;28;20066;-75
2023/02/19 15:11:42;;;;;;;3.88;0.50;;;;;;;;;;5089209;28;20059;-75
2023/02/19 15:14:16;;;;;;;2.65;0.73;;;;;;;;;;5088798;28;20031;-75
2023/02/19 15:16:42;;;;;;;3.50;0.75;;;;;;;;;;5089542;28;20032;-75
2023/02/19 15:19:09;;;;;;;2.67;0.75;;;;;;;;;;5089814;28;20039;-75